Time;durP1;ratioP1;P1;durP2;ratioP2;P2;SDS_P1;SDS_P2;PMS_P1;PMS_P2;Temp;Humidity;BMP_temperature;BMP_pressure;BME280_temperature;BME280_humidity;BME280_pressure;Samples;Min_cycle;Max_cycle;Signal;HPM_P1;HPM_P2
2022/03/20 00:01:18;;;;;;;5.47;4.87;;;;;;;0.31;66.41;102733.78;5031022;28;20188;-75
2022/03/20 00:03:45;;;;;;;8.97;5.30;;;;;;;0.23;67.18;102743.25;5031288;28;20200;-76
2022/03/20 00:06:12;;;;;;;9.47;6.00;;;;;;;0.08;67.72;102718.75;5031323;28;20193;-75
2022/03/20 00:08:39;;;;;;;12.23;7.00;;;;;;;0.10;68.08;102742.78;5031213;28;20207;-74
2022/03/20 00:11:06;;;;;;;9.87;4.60;;;;;;;0.20;68.44;102717.44;5030855;28;20196;-76
2022/03/20 00:13:33;;;;;;;8.53;5.40;;;;;;;-0.23;68.89;102694.44;5031087;28;20689;-76
2022/03/20 00:16:01;;;;;;;10.17;5.00;;;;;;;0.11;69.57;102729.25;5031084;28;20195;-75
2022/03/20 00:18:28;;;;;;;13.93;6.07;;;;;;;0.00;69.09;102724.78;5030256;28;20291;-74
2022/03/20 00:20:56;;;;;;;8.20;4.43;;;;;;;0.16;68.58;102727.16;5031011;28;20204;-76
2022/03/20 00:23:24;;;;;;;5.70;3.53;;;;;;;0.13;67.80;102702.28;5030907;28;20755;-74
2022/03/20 00:25:52;;;;;;;8.07;4.30;;;;;;;0.25;67.76;102717.88;5031358;28;20298;-75
2022/03/20 00:28:23;;;;;;;5.13;4.13;;;;;;;0.19;67.85;102718.16;5031682;28;20199;-74
2022/03/20 00:30:50;;;;;;;8.23;5.90;;;;;;;-0.01;67.64;102721.31;5033434;28;20219;-73
2022/03/20 00:33:18;;;;;;;4.77;3.80;;;;;;;0.05;67.89;102721.00;5034541;28;20228;-75
2022/03/20 00:35:45;;;;;;;13.27;6.10;;;;;;;-0.58;67.89;102665.44;5034378;28;20207;-76
2022/03/20 00:38:12;;;;;;;5.27;3.90;;;;;;;0.03;69.15;102717.44;5034331;28;20195;-75
2022/03/20 00:40:39;;;;;;;4.27;2.27;;;;;;;-0.05;68.40;102709.00;5034716;28;20196;-75
2022/03/20 00:43:09;;;;;;;5.33;3.50;;;;;;;0.15;67.76;102715.16;5034120;28;20200;-75
2022/03/20 00:45:36;;;;;;;9.07;4.93;;;;;;;0.19;67.13;102717.25;5033945;28;20705;-75
2022/03/20 00:48:03;;;;;;;3.73;3.07;;;;;;;-0.04;68.25;102682.75;5034458;28;20196;-75
2022/03/20 00:50:31;;;;;;;11.10;6.43;;;;;;;0.01;67.19;102716.34;5033514;28;20219;-75
2022/03/20 00:52:58;;;;;;;9.47;5.87;;;;;;;-0.09;67.86;102711.09;5033993;28;20227;-74
2022/03/20 00:55:25;;;;;;;8.07;6.07;;;;;;;-0.07;67.36;102709.59;5034258;28;20620;-76
2022/03/20 00:57:52;;;;;;;8.37;5.77;;;;;;;-0.10;67.70;102711.84;5034379;28;20204;-76
2022/03/20 01:00:19;;;;;;;5.03;3.70;;;;;;;-0.39;68.66;102631.59;5033813;28;20196;-75
2022/03/20 01:02:46;;;;;;;11.30;6.43;;;;;;;-0.27;68.72;102671.03;5034342;28;20592;-75
2022/03/20 01:05:14;;;;;;;11.27;5.93;;;;;;;-0.25;68.84;102693.38;5033793;28;20188;-76
2022/03/20 01:07:43;;;;;;;9.33;5.17;;;;;;;-0.14;68.90;102704.63;5033836;28;20208;-75
2022/03/20 01:10:11;;;;;;;14.97;8.17;;;;;;;-0.48;68.77;102653.59;5034022;28;20192;-75
2022/03/20 01:12:39;;;;;;;12.33;5.60;;;;;;;-0.05;68.63;102706.47;5033621;28;20234;-75
2022/03/20 01:15:07;;;;;;;12.93;5.67;;;;;;;-0.21;69.65;102685.28;5033789;28;20196;-77
2022/03/20 01:17:34;;;;;;;9.57;5.80;;;;;;;-0.18;68.52;102697.44;5033679;28;20218;-74
2022/03/20 01:20:01;;;;;;;8.33;4.50;;;;;;;-0.13;69.11;102707.34;5032772;28;20208;-75
2022/03/20 01:22:28;;;;;;;43.57;16.63;;;;;;;-0.13;68.31;102706.44;5033791;28;20202;-76
2022/03/20 01:24:56;;;;;;;29.57;10.53;;;;;;;-0.37;68.26;102650.47;5033776;28;20196;-76
2022/03/20 01:27:23;;;;;;;33.00;14.10;;;;;;;-0.14;68.53;102704.63;5033255;28;20197;-74
2022/03/20 01:29:50;;;;;;;44.97;20.13;;;;;;;-0.23;69.15;102703.72;5033365;28;20192;-77
2022/03/20 01:32:17;;;;;;;54.27;21.33;;;;;;;-0.16;67.56;102704.50;5033209;28;20223;-73
2022/03/20 01:34:44;;;;;;;55.00;28.43;;;;;;;-0.11;67.29;102699.84;5033595;28;20281;-75
2022/03/20 01:37:11;;;;;;;27.83;16.50;;;;;;;-0.48;66.42;102636.66;5033351;28;20285;-75
2022/03/20 01:39:38;;;;;;;34.50;17.30;;;;;;;-0.13;66.82;102703.88;5033231;28;20201;-75
2022/03/20 01:42:07;;;;;;;21.77;10.13;;;;;;;0.01;65.31;102698.50;5032820;28;20215;-75
2022/03/20 01:44:36;;;;;;;6.97;5.27;;;;;;;-0.23;66.29;102661.28;5033446;28;20200;-74
2022/03/20 01:47:03;;;;;;;14.90;8.47;;;;;;;0.06;65.24;102704.97;5032817;28;20623;-74
2022/03/20 01:49:30;;;;;;;15.63;8.77;;;;;;;0.11;63.94;102702.88;5032500;28;20223;-75
2022/03/20 01:52:13;;;;;;;11.30;7.10;;;;;;;0.14;63.98;102703.19;5033135;28;20220;-74
2022/03/20 01:54:44;;;;;;;14.17;8.57;;;;;;;0.04;65.03;102701.34;5032879;28;20287;-75
2022/03/20 01:57:16;;;;;;;13.33;7.40;;;;;;;-0.09;64.92;102695.78;5033082;28;20227;-74
2022/03/20 01:59:43;;;;;;;9.67;6.80;;;;;;;0.01;64.68;102706.16;5032676;28;20203;-75
2022/03/20 02:02:11;;;;;;;10.73;7.13;;;;;;;-0.20;65.52;102709.13;5032893;28;20207;-74
2022/03/20 02:04:39;;;;;;;15.53;6.80;;;;;;;-0.24;65.78;102712.13;5032976;28;20274;-76
2022/03/20 02:07:07;;;;;;;12.00;7.17;;;;;;;-0.33;65.75;102675.53;5032980;28;20192;-76
2022/03/20 02:09:36;;;;;;;10.73;7.00;;;;;;;-0.24;65.23;102705.38;5032616;28;20235;-76
2022/03/20 02:12:03;;;;;;;14.83;7.70;;;;;;;-0.34;64.56;102673.72;5032428;28;20259;-75
2022/03/20 02:14:32;;;;;;;13.60;6.40;;;;;;;-0.22;64.00;102687.69;5032409;28;20208;-75
2022/03/20 02:16:59;;;;;;;15.77;7.10;;;;;;;0.01;63.93;102716.34;5032348;28;20237;-75
2022/03/20 02:19:26;;;;;;;11.57;6.87;;;;;;;-0.06;64.39;102711.41;5031481;28;20200;-75
2022/03/20 02:21:55;;;;;;;11.30;6.47;;;;;;;0.00;64.36;102715.44;5032386;28;20192;-75
2022/03/20 02:24:36;;;;;;;11.40;6.30;;;;;;;-0.05;65.13;102714.09;5032496;28;20193;-74
2022/03/20 02:27:09;;;;;;;11.63;7.80;;;;;;;-0.24;64.72;102713.03;5032502;28;20299;-75
2022/03/20 02:29:37;;;;;;;9.93;5.87;;;;;;;-0.21;65.73;102717.50;5032234;28;20658;-74
2022/03/20 02:32:05;;;;;;;12.03;5.53;;;;;;;-0.19;66.24;102705.84;5032017;28;20671;-74
2022/03/20 02:34:32;;;;;;;6.77;5.70;;;;;;;-0.17;66.57;102717.06;5032307;28;20208;-74
2022/03/20 02:37:01;;;;;;;7.33;5.43;;;;;;;-0.27;67.05;102711.81;5031889;28;20195;-76
2022/03/20 02:39:29;;;;;;;9.07;5.87;;;;;;;-0.68;66.84;102652.50;5032369;28;20196;-75
2022/03/20 02:41:58;;;;;;;10.53;6.63;;;;;;;-0.32;67.00;102715.56;5032017;28;20235;-74
2022/03/20 02:44:50;;;;;;;11.13;6.53;;;;;;;-0.29;66.35;102718.41;5032248;28;20224;-74
2022/03/20 02:47:22;;;;;;;16.47;8.13;;;;;;;-0.38;66.75;102712.38;5031564;28;20718;-74
2022/03/20 02:49:51;;;;;;;13.67;7.80;;;;;;;-0.32;66.93;102715.56;5031467;28;20227;-75
2022/03/20 02:52:20;;;;;;;16.00;6.90;;;;;;;-0.41;67.49;102717.19;5031853;28;20220;-75
2022/03/20 02:54:47;;;;;;;14.50;6.70;;;;;;;-0.74;67.59;102646.78;5031381;28;20196;-75
2022/03/20 02:57:14;;;;;;;8.67;6.10;;;;;;;-0.44;69.60;102721.97;5032045;28;20595;-75
2022/03/20 02:59:41;;;;;;;10.77;5.97;;;;;;;-0.52;68.56;102711.91;5031628;28;20679;-74
2022/03/20 03:02:11;;;;;;;19.83;9.23;;;;;;;-0.52;67.59;102708.44;5031704;28;20203;-74
2022/03/20 03:04:38;;;;;;;15.33;9.17;;;;;;;-0.71;68.62;102664.03;5031702;28;20206;-75
2022/03/20 03:07:06;;;;;;;16.83;9.03;;;;;;;-0.88;69.40;102669.97;5031649;28;20253;-74
2022/03/20 03:12:18;;;;;;;19.53;10.20;;;;;;;-0.61;70.77;102718.59;5031561;28;20204;-75
2022/03/20 03:17:29;;;;;;;22.33;12.50;;;;;;;-0.80;72.33;102707.31;5031513;28;20187;-74
2022/03/20 03:19:57;;;;;;;21.10;10.20;;;;;;;-0.80;73.34;102716.59;5031039;28;20222;-73
2022/03/20 03:22:26;;;;;;;12.60;8.20;;;;;;;-0.69;71.70;102714.41;5031348;28;20586;-75
2022/03/20 03:24:55;;;;;;;15.33;8.47;;;;;;;-0.84;71.62;102692.47;5031456;28;20686;-75
2022/03/20 03:27:22;;;;;;;13.57;9.30;;;;;;;-0.90;70.74;102673.13;5031651;28;20207;-75
2022/03/20 03:29:49;;;;;;;13.40;7.27;;;;;;;-0.54;70.91;102715.97;5032305;28;20222;-74
2022/03/20 03:32:16;;;;;;;20.87;9.17;;;;;;;-0.70;71.24;102688.75;5031261;28;20195;-75
2022/03/20 03:37:27;;;;;;;16.00;8.87;;;;;;;-0.89;73.21;102720.75;5031338;28;20196;-75
2022/03/20 03:39:55;;;;;;;13.80;7.93;;;;;;;-0.76;73.62;102717.06;5031581;28;20196;-75
2022/03/20 03:42:22;;;;;;;15.43;7.50;;;;;;;-0.92;73.75;102695.84;5031655;28;20396;-75
2022/03/20 03:44:51;;;;;;;16.20;7.67;;;;;;;-0.75;73.73;102717.97;5031520;28;20192;-75
2022/03/20 03:47:18;;;;;;;14.93;8.33;;;;;;;-0.74;72.82;102723.22;5030900;28;20315;-75
2022/03/20 03:49:44;;;;;;;12.13;7.33;;;;;;;-1.01;73.50;102712.75;5030660;28;20200;-75
2022/03/20 03:52:12;;;;;;;11.23;7.07;;;;;;;-1.04;74.38;102722.63;5031057;28;20208;-76
2022/03/20 03:54:39;;;;;;;6.83;3.60;;;;;;;-0.89;74.50;102729.28;5031496;28;20192;-75
2022/03/20 03:57:07;;;;;;;18.47;8.27;;;;;;;-1.04;75.20;102727.72;5031382;28;20196;-75
2022/03/20 03:59:34;;;;;;;13.57;7.40;;;;;;;-1.31;76.34;102692.66;5031254;28;20590;-74
2022/03/20 04:02:01;;;;;;;12.93;7.63;;;;;;;-1.01;76.53;102728.03;5031331;28;20200;-74
2022/03/20 04:04:28;;;;;;;17.33;8.07;;;;;;;-1.02;76.57;102716.94;5031800;28;20192;-75
2022/03/20 04:06:56;;;;;;;21.37;9.97;;;;;;;-1.07;76.20;102732.50;5034788;28;20203;-75
2022/03/20 04:09:23;;;;;;;21.40;9.53;;;;;;;-1.18;76.81;102727.94;5035004;28;20236;-75
2022/03/20 04:11:50;;;;;;;19.57;9.60;;;;;;;-1.23;77.47;102729.09;5034818;28;20582;-74
2022/03/20 04:14:18;;;;;;;17.70;8.53;;;;;;;-1.12;77.16;102728.56;5034384;28;20717;-74
2022/03/20 04:16:45;;;;;;;17.93;8.83;;;;;;;-1.16;76.68;102731.53;5034696;28;20203;-74
2022/03/20 04:19:11;;;;;;;23.43;11.23;;;;;;;-1.15;77.69;102728.25;5033815;28;20210;-75
2022/03/20 04:21:38;;;;;;;16.03;7.30;;;;;;;-0.98;77.83;102723.25;5034896;28;20586;-76
2022/03/20 04:24:07;;;;;;;13.33;8.40;;;;;;;-1.06;78.00;102719.91;5034459;28;20256;-74
2022/03/20 04:26:35;;;;;;;18.97;8.80;;;;;;;-1.15;78.27;102723.16;5034455;28;20254;-73
2022/03/20 04:29:02;;;;;;;14.13;8.23;;;;;;;-1.14;79.88;102722.44;5034459;28;20207;-75
2022/03/20 04:31:30;;;;;;;18.27;7.03;;;;;;;-1.06;83.35;102719.00;5034498;28;20196;-72
2022/03/20 04:33:58;;;;;;;13.50;7.07;;;;;;;-1.28;81.81;102730.25;5034576;28;20623;-72
2022/03/20 04:36:27;;;;;;;13.83;6.97;;;;;;;-1.26;83.27;102731.31;5034707;28;20207;-72
2022/03/20 04:38:56;;;;;;;16.63;7.93;;;;;;;-1.23;83.86;102726.53;5034737;28;20204;-72
2022/03/20 04:41:23;;;;;;;15.23;9.03;;;;;;;-1.20;84.15;102727.75;5034250;28;20291;-74
2022/03/20 04:43:51;;;;;;;14.00;8.30;;;;;;;-1.11;82.93;102731.28;5034552;28;20565;-73
2022/03/20 04:46:19;;;;;;;15.57;8.03;;;;;;;-1.11;81.10;102698.19;5033905;28;20290;-75
2022/03/20 04:59:45;;;;;;;29.97;15.00;;;;;;;-0.27;75.80;102730.56;5033874;28;20292;-73
2022/03/20 05:02:12;;;;;;;21.50;11.67;;;;;;;0.05;74.37;102753.25;5033751;28;20200;-74
2022/03/20 05:04:40;;;;;;;22.63;12.17;;;;;;;0.10;72.48;102742.78;5033612;28;20684;-76
2022/03/20 05:07:08;;;;;;;29.47;12.40;;;;;;;-0.10;72.59;102738.25;5033766;28;20198;-75
2022/03/20 05:15:14;;;;;;;18.63;10.30;;;;;;;-0.43;76.70;102749.28;5028376;28;20207;-74
2022/03/20 05:17:41;;;;;;;21.33;10.40;;;;;;;-0.40;77.07;102757.22;5032498;28;20623;-73
2022/03/20 05:20:11;;;;;;;21.67;11.27;;;;;;;-0.45;78.17;102760.94;5033039;28;20560;-75
2022/03/20 05:22:39;;;;;;;22.97;11.90;;;;;;;-0.61;78.47;102723.69;5033660;28;20263;-75
2022/03/20 05:25:09;;;;;;;17.97;10.33;;;;;;;-0.45;79.66;102766.03;5033597;28;20192;-74
2022/03/20 05:27:37;;;;;;;19.67;11.07;;;;;;;-0.47;79.06;102762.44;5033129;28;20613;-73
2022/03/20 05:30:05;;;;;;;25.63;10.57;;;;;;;-0.45;79.07;102774.59;5033694;28;20211;-74
2022/03/20 05:32:33;;;;;;;21.73;10.33;;;;;;;-0.34;79.26;102761.28;5033461;28;20192;-74
2022/03/20 05:35:00;;;;;;;22.43;9.67;;;;;;;-0.15;77.85;102767.50;5033125;28;20679;-75
2022/03/20 05:37:29;;;;;;;17.17;9.23;;;;;;;-0.10;77.85;102757.72;5032320;28;20196;-74
2022/03/20 05:39:56;;;;;;;20.93;9.97;;;;;;;-0.01;77.46;102766.31;5032940;28;20239;-75
2022/03/20 05:42:23;;;;;;;19.90;11.30;;;;;;;-0.08;76.63;102740.97;5031513;28;20200;-75
2022/03/20 05:44:51;;;;;;;32.50;11.90;;;;;;;0.26;76.04;102771.59;5032897;28;20211;-74
2022/03/20 05:47:18;;;;;;;77.23;24.20;;;;;;;0.36;74.71;102764.09;5032900;28;20326;-75
2022/03/20 05:49:46;;;;;;;46.97;19.53;;;;;;;0.33;75.23;102765.44;5032049;28;20200;-75
2022/03/20 05:52:13;;;;;;;43.43;18.73;;;;;;;0.36;74.50;102764.09;5033298;28;20294;-75
2022/03/20 05:54:41;;;;;;;36.10;13.53;;;;;;;0.26;74.85;102761.38;5033060;28;20224;-75
2022/03/20 05:59:53;;;;;;;25.40;11.27;;;;;;;0.38;74.40;102754.06;5032875;28;20271;-74
2022/03/20 06:02:21;;;;;;;17.20;8.70;;;;;;;0.32;73.35;102762.00;5032475;28;20192;-75
2022/03/20 06:04:48;;;;;;;34.10;12.53;;;;;;;0.27;73.10;102739.34;5032790;28;20666;-74
2022/03/20 06:07:15;;;;;;;31.20;12.47;;;;;;;0.56;73.05;102767.72;5033189;28;20192;-73
2022/03/20 06:09:43;;;;;;;74.50;23.23;;;;;;;0.46;72.74;102725.94;5032919;28;20192;-74
2022/03/20 06:12:10;;;;;;;87.13;27.30;;;;;;;0.78;72.50;102772.50;5032475;28;20204;-76
2022/03/20 06:14:37;;;;;;;49.27;18.73;;;;;;;0.68;74.01;102777.44;5032458;28;20255;-73
2022/03/20 06:17:06;;;;;;;30.30;12.87;;;;;;;0.63;74.29;102776.13;5032851;28;20630;-72
2022/03/20 06:19:33;;;;;;;54.30;17.83;;;;;;;0.79;74.02;102774.28;5031544;28;20196;-73
2022/03/20 06:22:00;;;;;;;90.00;23.97;;;;;;;0.71;74.17;102759.00;5032723;28;20258;-75
2022/03/20 06:24:27;;;;;;;80.43;23.33;;;;;;;0.82;74.73;102750.72;5032549;28;20196;-74
2022/03/20 06:26:55;;;;;;;50.57;18.37;;;;;;;1.20;85.14;102773.16;5032897;28;20200;-76
2022/03/20 06:29:22;;;;;;;45.60;17.43;;;;;;;1.02;74.78;102781.63;5032319;28;20196;-73
2022/03/20 06:31:51;;;;;;;31.97;14.87;;;;;;;1.01;74.34;102756.81;5032543;28;20204;-72
2022/03/20 06:34:18;;;;;;;65.57;21.93;;;;;;;1.05;72.50;102764.03;5031969;28;20236;-74
2022/03/20 06:36:45;;;;;;;45.93;15.63;;;;;;;0.90;71.53;102757.44;5032261;28;20211;-73
2022/03/20 06:39:12;;;;;;;57.03;21.27;;;;;;;0.97;71.16;102775.16;5032331;28;20192;-73
2022/03/20 06:41:38;;;;;;;28.57;10.80;;;;;;;0.91;71.00;102775.47;5032258;28;20192;-73
2022/03/20 06:44:07;;;;;;;30.33;13.07;;;;;;;0.93;71.31;102757.72;5032244;28;20200;-73
2022/03/20 06:46:37;;;;;;;28.10;11.53;;;;;;;0.68;70.92;102733.19;5031606;28;20235;-74
2022/03/20 06:49:06;;;;;;;22.30;11.07;;;;;;;0.82;72.14;102787.34;5031366;28;20227;-73
2022/03/20 06:51:33;;;;;;;12.37;7.60;;;;;;;0.90;73.74;102788.09;5032019;28;20689;-75
2022/03/20 06:54:00;;;;;;;24.43;10.27;;;;;;;1.03;75.47;102780.88;5031921;28;20227;-74
2022/03/20 06:56:28;;;;;;;18.50;11.20;;;;;;;1.06;75.66;102785.38;5031884;28;20199;-75
2022/03/20 06:58:55;;;;;;;14.10;8.40;;;;;;;0.86;76.20;102786.00;5031859;28;20195;-75
2022/03/20 07:01:23;;;;;;;21.57;10.47;;;;;;;1.09;76.63;102785.66;5031764;28;20228;-76
2022/03/20 07:03:50;;;;;;;16.43;8.43;;;;;;;1.08;76.18;102783.84;5032011;28;20234;-75
2022/03/20 07:06:17;;;;;;;17.07;9.10;;;;;;;0.93;75.86;102762.84;5031797;28;20196;-76
2022/03/20 07:08:44;;;;;;;22.63;10.80;;;;;;;1.16;75.63;102773.63;5031880;28;20222;-74
2022/03/20 07:11:10;;;;;;;19.80;10.87;;;;;;;1.16;74.51;102750.63;5031433;28;20250;-74
2022/03/20 07:13:53;;;;;;;22.00;7.97;;;;;;;1.32;75.03;102781.97;5031631;28;20246;-76
2022/03/20 07:16:21;;;;;;;32.50;12.43;;;;;;;2.24;100.00;102779.56;5031567;28;20670;-71
2022/03/20 07:18:49;;;;;;;18.63;8.73;;;;;;;2.51;100.00;102781.16;5031374;28;20199;-76
2022/03/20 07:21:19;;;;;;;17.90;10.70;;;;;;;2.37;96.31;102787.59;5031383;28;20203;-74
2022/03/20 07:23:46;;;;;;;19.57;10.33;;;;;;;1.70;80.27;102731.00;5031309;28;20670;-75
2022/03/20 07:31:41;;;;;;;19.67;10.17;;;;;;;1.90;75.85;102764.41;5031429;28;20696;-75
2022/03/20 07:34:10;;;;;;;18.30;10.33;;;;;;;2.15;75.69;102776.16;5031161;28;20227;-73
2022/03/20 07:36:36;;;;;;;19.37;10.57;;;;;;;2.12;75.86;102786.09;5031531;28;20203;-74
2022/03/20 07:39:04;;;;;;;27.17;12.33;;;;;;;2.27;75.37;102782.41;5031304;28;20200;-72
2022/03/20 07:41:31;;;;;;;50.90;22.30;;;;;;;1.99;75.58;102742.25;5035238;28;20231;-74
2022/03/20 07:43:58;;;;;;;13.87;8.83;;;;;;;2.27;74.89;102790.06;5035320;28;20658;-73
2022/03/20 07:46:25;;;;;;;13.83;8.33;;;;;;;2.08;68.79;102760.09;5035136;28;20232;-75
2022/03/20 07:48:52;;;;;;;15.20;7.20;;;;;;;2.37;66.98;102779.91;5034550;28;20736;-73
2022/03/20 07:51:21;;;;;;;17.57;8.17;;;;;;;2.44;66.36;102782.25;5035132;28;20196;-74
2022/03/20 07:53:48;;;;;;;25.13;13.83;;;;;;;2.53;66.67;102783.84;5035613;28;20224;-75
2022/03/20 07:56:18;;;;;;;22.07;9.50;;;;;;;2.36;64.60;102732.00;5035075;28;20659;-75
2022/03/20 07:58:45;;;;;;;12.77;7.10;;;;;;;2.54;62.23;102767.72;5035328;28;20204;-75
2022/03/20 08:01:13;;;;;;;14.20;7.43;;;;;;;2.62;61.84;102783.03;5033732;28;20188;-74
2022/03/20 08:03:41;;;;;;;17.53;9.03;;;;;;;2.78;62.78;102780.19;5034678;28;20700;-74
2022/03/20 08:06:08;;;;;;;12.80;6.27;;;;;;;2.75;63.15;102779.88;5035145;28;20196;-73
2022/03/20 08:08:39;;;;;;;13.47;8.77;;;;;;;2.92;61.99;102783.19;5034651;28;20235;-74
2022/03/20 08:11:07;;;;;;;16.33;8.73;;;;;;;2.72;62.11;102759.13;5035150;28;20196;-74
2022/03/20 08:13:34;;;;;;;14.20;9.27;;;;;;;2.98;61.44;102765.78;5034872;28;20196;-73
2022/03/20 08:16:01;;;;;;;17.63;9.50;;;;;;;3.21;60.54;102744.72;5034985;28;20199;-73
2022/03/20 08:18:29;;;;;;;18.03;9.33;;;;;;;2.99;60.04;102741.06;5034611;28;20199;-74
2022/03/20 08:20:56;;;;;;;13.33;8.30;;;;;;;3.00;60.15;102773.59;5033585;28;20207;-73
2022/03/20 08:23:23;;;;;;;13.93;8.60;;;;;;;3.13;59.82;102771.38;5034561;28;20192;-72
2022/03/20 08:25:51;;;;;;;18.07;9.07;;;;;;;3.36;59.35;102765.66;5034759;28;20200;-73
2022/03/20 08:28:18;;;;;;;19.43;10.67;;;;;;;3.32;60.12;102738.84;5034497;28;20204;-74
2022/03/20 08:30:45;;;;;;;15.97;9.60;;;;;;;3.44;58.85;102744.16;5034346;28;20246;-72
2022/03/20 08:33:11;;;;;;;17.30;8.93;;;;;;;3.66;57.81;102764.84;5034285;28;20208;-73
2022/03/20 08:35:39;;;;;;;11.97;7.03;;;;;;;3.67;55.57;102762.44;5034193;28;20718;-71
2022/03/20 08:38:06;;;;;;;11.27;7.57;;;;;;;3.84;57.83;102744.22;5034529;28;20200;-74
2022/03/20 08:40:33;;;;;;;10.93;7.13;;;;;;;4.03;54.53;102751.81;5034621;28;20200;-74
2022/03/20 08:43:04;;;;;;;12.13;7.77;;;;;;;4.18;53.59;102753.06;5034217;28;20193;-74
2022/03/20 08:45:33;;;;;;;11.93;6.30;;;;;;;3.69;52.96;102696.72;5034077;28;20216;-74
2022/03/20 08:48:01;;;;;;;10.07;6.80;;;;;;;4.05;52.42;102746.78;5034260;28;20197;-73
2022/03/20 08:50:28;;;;;;;15.17;8.70;;;;;;;4.11;52.70;102749.84;5033118;28;20315;-73
2022/03/20 08:52:55;;;;;;;11.67;7.70;;;;;;;4.19;52.37;102734.31;5034199;28;20204;-75
2022/03/20 08:55:22;;;;;;;13.90;7.57;;;;;;;4.26;51.59;102734.06;5034174;28;20231;-75
2022/03/20 08:57:51;;;;;;;4.33;3.80;;;;;;;4.19;51.96;102733.41;5034179;28;20203;-73
2022/03/20 09:00:21;;;;;;;11.67;6.73;;;;;;;4.63;60.75;102737.97;5033920;28;20218;-74
2022/03/20 09:02:49;;;;;;;12.40;6.83;;;;;;;4.41;51.05;102745.59;5033893;28;20189;-75
2022/03/20 09:05:17;;;;;;;11.17;6.50;;;;;;;4.48;49.68;102732.47;5034180;28;20224;-72
2022/03/20 09:07:44;;;;;;;17.60;7.13;;;;;;;4.53;50.48;102722.56;5033920;28;20200;-74
2022/03/20 09:10:13;;;;;;;11.17;6.50;;;;;;;4.26;49.84;102692.97;5034020;28;20199;-74
2022/03/20 09:12:42;;;;;;;8.23;5.83;;;;;;;4.66;49.08;102729.59;5033896;28;20196;-74
2022/03/20 09:15:12;;;;;;;12.23;6.87;;;;;;;4.79;48.25;102735.84;5033615;28;20740;-74
2022/03/20 09:20:24;;;;;;;14.27;6.63;;;;;;;4.94;48.04;102723.34;5032895;28;20689;-74
2022/03/20 09:22:51;;;;;;;10.37;6.37;;;;;;;5.07;47.75;102718.38;5033877;28;20219;-75
2022/03/20 09:25:18;;;;;;;8.87;4.07;;;;;;;4.81;47.04;102718.00;5033478;28;20201;-77
2022/03/20 09:27:48;;;;;;;12.93;6.70;;;;;;;5.12;47.36;102716.19;5033402;28;20304;-75
2022/03/20 09:30:15;;;;;;;9.23;6.27;;;;;;;5.22;46.73;102710.97;5033841;28;20202;-75
2022/03/20 09:32:46;;;;;;;9.57;6.60;;;;;;;4.93;46.23;102675.25;5033546;28;20219;-74
2022/03/20 09:35:16;;;;;;;10.50;6.23;;;;;;;5.35;45.19;102711.19;5033444;28;20331;-74
2022/03/20 09:37:43;;;;;;;12.00;6.40;;;;;;;5.39;44.24;102710.59;5033203;28;20192;-76
2022/03/20 09:40:11;;;;;;;10.23;6.63;;;;;;;5.30;43.99;102695.38;5033434;28;20200;-76
2022/03/20 09:42:39;;;;;;;7.93;6.10;;;;;;;5.45;46.74;102701.72;5033144;28;20239;-77
2022/03/20 09:45:09;;;;;;;22.50;8.00;;;;;;;5.99;55.81;102699.00;5033444;28;20208;-80
2022/03/20 09:47:36;;;;;;;15.80;7.03;;;;;;;5.95;46.25;102704.72;5033031;28;20238;-75
2022/03/20 09:50:06;;;;;;;8.67;7.33;;;;;;;5.76;44.15;102674.06;5032440;28;20231;-76
2022/03/20 09:52:37;;;;;;;11.60;5.90;;;;;;;6.08;44.27;102698.78;5032979;28;20200;-75
2022/03/20 09:55:06;;;;;;;14.20;7.00;;;;;;;5.82;44.14;102665.88;5032880;28;20801;-77
2022/03/20 09:57:33;;;;;;;9.37;5.93;;;;;;;5.97;42.97;102695.41;5032808;28;20199;-77
2022/03/20 10:00:04;;;;;;;10.20;6.13;;;;;;;6.08;42.34;102699.69;5033346;28;20203;-74
2022/03/20 10:02:30;;;;;;;6.70;4.37;;;;;;;5.92;41.83;102691.59;5032641;28;20254;-76
2022/03/20 10:05:00;;;;;;;9.63;6.27;;;;;;;5.95;41.56;102681.53;5032959;28;20291;-75
2022/03/20 10:07:33;;;;;;;8.87;5.20;;;;;;;5.92;40.57;102660.72;5032662;28;20192;-76
2022/03/20 10:10:07;;;;;;;6.73;3.60;;;;;;;5.91;40.18;102692.38;5033050;28;20234;-75
2022/03/20 10:12:35;;;;;;;9.93;4.47;;;;;;;6.01;40.80;102687.13;5032533;28;20675;-75
2022/03/20 10:15:05;;;;;;;8.23;5.17;;;;;;;6.16;39.50;102677.97;5032920;28;20224;-74
2022/03/20 10:17:32;;;;;;;6.67;4.77;;;;;;;6.12;39.07;102675.94;5032771;28;20216;-75
2022/03/20 10:20:13;;;;;;;7.73;5.63;;;;;;;6.32;40.21;102669.69;5032052;28;20648;-73
2022/03/20 10:22:42;;;;;;;4.73;4.03;;;;;;;6.46;40.11;102661.28;5032431;28;20226;-76
2022/03/20 10:25:12;;;;;;;6.60;4.80;;;;;;;6.28;39.64;102647.94;5032609;28;20585;-74
2022/03/20 10:27:40;;;;;;;6.77;4.80;;;;;;;6.39;39.49;102666.75;5032493;28;20192;-75
2022/03/20 10:30:11;;;;;;;7.40;5.03;;;;;;;6.56;36.96;102649.97;5032365;28;20287;-76
2022/03/20 10:32:48;;;;;;;6.07;3.73;;;;;;;6.48;36.85;102646.84;5032162;28;20584;-75
2022/03/20 10:35:16;;;;;;;15.33;7.53;;;;;;;6.66;38.28;102647.25;5032202;28;20227;-77
2022/03/20 10:37:47;;;;;;;10.70;5.70;;;;;;;6.63;38.66;102647.03;5032416;28;20258;-74
2022/03/20 10:40:16;;;;;;;8.07;4.23;;;;;;;6.56;37.55;102626.78;5032402;28;20197;-76
2022/03/20 10:42:44;;;;;;;9.27;5.17;;;;;;;6.74;36.87;102644.41;5032099;28;20203;-75
2022/03/20 10:45:11;;;;;;;10.67;5.73;;;;;;;6.82;37.89;102644.97;5032418;28;20203;-77
2022/03/20 10:47:38;;;;;;;8.40;4.50;;;;;;;6.59;38.58;102634.72;5031816;28;20267;-75
2022/03/20 10:50:07;;;;;;;10.00;6.07;;;;;;;6.71;38.81;102612.38;5031163;28;20689;-74
2022/03/20 10:52:36;;;;;;;10.73;5.27;;;;;;;6.95;38.42;102614.13;5031951;28;20214;-75
2022/03/20 10:55:09;;;;;;;11.70;5.73;;;;;;;7.37;37.96;102624.81;5031917;28;20318;-75
2022/03/20 10:57:36;;;;;;;5.20;3.70;;;;;;;7.28;37.77;102624.19;5031831;28;20204;-77
2022/03/20 11:00:07;;;;;;;7.23;5.17;;;;;;;7.57;37.94;102602.03;5032194;28;20210;-75
2022/03/20 11:02:36;;;;;;;8.87;5.43;;;;;;;7.77;35.66;102609.44;5031680;28;20197;-76
2022/03/20 11:05:04;;;;;;;8.30;4.60;;;;;;;7.76;35.44;102600.78;5031868;28;20243;-76
2022/03/20 11:07:31;;;;;;;10.23;6.03;;;;;;;7.83;35.57;102602.09;5031645;28;20628;-75
2022/03/20 11:09:57;;;;;;;7.37;5.30;;;;;;;8.03;35.10;102590.47;5031721;28;20589;-75
2022/03/20 11:12:29;;;;;;;7.83;4.93;;;;;;;7.66;35.98;102543.28;5031890;28;20207;-75
2022/03/20 11:14:59;;;;;;;6.63;4.40;;;;;;;7.78;35.53;102578.53;5031041;28;20231;-75
2022/03/20 11:17:28;;;;;;;9.27;5.43;;;;;;;7.94;36.18;102586.50;5031780;28;20199;-76
2022/03/20 11:19:57;;;;;;;12.60;4.57;;;;;;;7.58;36.51;102526.38;5031075;28;20196;-75
2022/03/20 11:22:25;;;;;;;11.83;4.00;;;;;;;7.66;35.52;102556.19;5031476;28;20208;-77
2022/03/20 11:24:55;;;;;;;8.93;6.27;;;;;;;8.11;36.65;102569.50;5031259;28;20583;-77
2022/03/20 11:27:24;;;;;;;8.43;5.63;;;;;;;7.84;36.52;102570.31;5031674;28;20595;-75
2022/03/20 11:29:59;;;;;;;8.13;5.17;;;;;;;7.85;36.33;102564.31;5031399;28;20228;-75
2022/03/20 11:32:26;;;;;;;7.50;4.93;;;;;;;7.76;35.18;102553.41;5031758;28;20207;-77
2022/03/20 11:34:53;;;;;;;8.17;5.13;;;;;;;7.63;35.50;102492.34;5031461;28;20776;-77
2022/03/20 11:37:20;;;;;;;9.27;5.23;;;;;;;7.60;35.79;102501.56;5031564;28;20188;-76
2022/03/20 11:40:10;;;;;;;7.87;5.70;;;;;;;8.37;35.01;102548.84;5031960;28;20599;-77
2022/03/20 11:42:38;;;;;;;7.85;5.00;;;;;;;8.31;33.92;102532.94;5031406;28;20192;-77
2022/03/20 11:45:18;;;;;;;4.85;4.07;;;;;;;8.63;34.15;102531.50;5031570;28;20196;-77
2022/03/20 11:47:47;;;;;;;8.80;4.93;;;;;;;8.74;33.75;102535.66;5031147;28;20593;-76
2022/03/20 11:50:17;;;;;;;7.35;5.03;;;;;;;8.58;34.69;102543.22;5030686;28;20230;-76
2022/03/20 11:53:03;;;;;;;12.27;6.40;;;;;;;8.37;34.90;102533.34;5031406;28;20232;-76
2022/03/20 11:55:35;;;;;;;5.93;3.67;;;;;;;7.78;34.87;102458.84;5031007;28;20227;-77
2022/03/20 11:58:06;;;;;;;5.23;3.73;;;;;;;8.12;35.51;102529.06;5031241;28;20200;-77
2022/03/20 12:00:36;;;;;;;10.20;5.13;;;;;;;8.45;34.89;102526.06;5031269;28;20569;-76
2022/03/20 12:03:43;;;;;;;6.57;4.87;;;;;;;8.78;33.69;102525.56;5031756;28;20523;-77